Time;durP1;ratioP1;P1;durP2;ratioP2;P2;SDS_P1;SDS_P2;PMS_P1;PMS_P2;Temp;Humidity;BMP_temperature;BMP_pressure;BME280_temperature;BME280_humidity;BME280_pressure;Samples;Min_cycle;Max_cycle;Signal;HPM_P1;HPM_P2
2022/07/26 00:01:42;;;;;;;3.53;2.38;;;14.70;99.90;;;;;;4919547;29;20023;-75
2022/07/26 00:04:11;;;;;;;7.78;3.97;;;14.90;99.90;;;;;;4936854;29;20048;-74
2022/07/26 00:06:38;;;;;;;10.73;6.10;;;15.00;99.90;;;;;;4936593;29;20392;-74
2022/07/26 00:09:06;;;;;;;6.35;3.70;;;15.20;99.90;;;;;;4936574;29;20062;-75
2022/07/26 00:11:33;;;;;;;5.68;3.47;;;15.30;99.90;;;;;;4919571;29;20039;-74
2022/07/26 00:14:03;;;;;;;6.63;3.58;;;15.40;99.90;;;;;;4936632;29;20027;-75
2022/07/26 00:16:30;;;;;;;8.30;7.22;;;15.30;99.90;;;;;;4919167;29;20395;-75
2022/07/26 00:18:58;;;;;;;13.00;8.80;;;15.50;99.90;;;;;;4936598;29;20062;-73
2022/07/26 00:21:25;;;;;;;14.82;10.65;;;15.50;99.90;;;;;;4936541;29;20507;-75
2022/07/26 00:23:53;;;;;;;14.93;10.15;;;15.50;99.90;;;;;;4919072;29;20044;-74
2022/07/26 00:26:20;;;;;;;16.33;9.05;;;15.50;99.90;;;;;;4919380;29;20488;-74
2022/07/26 00:28:48;;;;;;;16.10;10.18;;;15.50;99.90;;;;;;4936301;29;20028;-75
2022/07/26 00:31:15;;;;;;;14.57;9.25;;;15.60;99.90;;;;;;4919419;29;20027;-75
2022/07/26 00:33:43;;;;;;;13.88;9.98;;;15.50;99.90;;;;;;4936115;29;20052;-73
2022/07/26 00:36:10;;;;;;;11.80;9.27;;;15.60;99.90;;;;;;4919134;29;20118;-74
2022/07/26 00:38:38;;;;;;;10.10;8.93;;;15.60;99.90;;;;;;4936229;29;20028;-74
2022/07/26 00:41:06;;;;;;;13.20;9.00;;;15.60;99.90;;;;;;4918956;29;20056;-74
2022/07/26 00:43:34;;;;;;;12.18;9.65;;;15.70;99.90;;;;;;4903351;29;20067;-74
2022/07/26 00:46:02;;;;;;;13.25;8.80;;;15.80;99.90;;;;;;4936367;29;20031;-74
2022/07/26 00:48:29;;;;;;;10.57;7.97;;;15.80;99.90;;;;;;4936135;29;20026;-74
2022/07/26 00:50:56;;;;;;;9.63;8.02;;;15.90;99.90;;;;;;4935866;29;20024;-73
2022/07/26 00:53:24;;;;;;;11.07;8.10;;;16.00;99.90;;;;;;4935839;29;20040;-74
2022/07/26 00:55:52;;;;;;;12.27;8.05;;;15.90;99.90;;;;;;4918774;29;20051;-74
2022/07/26 00:58:19;;;;;;;10.35;7.72;;;15.90;99.90;;;;;;4918793;29;20031;-74
2022/07/26 01:00:47;;;;;;;6.00;5.10;;;16.10;99.90;;;;;;4918812;29;20415;-74
2022/07/26 01:03:14;;;;;;;8.27;5.68;;;16.10;99.90;;;;;;4935966;29;20020;-75
2022/07/26 01:05:42;;;;;;;6.78;5.28;;;16.10;99.90;;;;;;4936193;29;20389;-73
2022/07/26 01:08:10;;;;;;;9.20;5.63;;;16.00;99.90;;;;;;4918524;29;20027;-74
2022/07/26 01:10:38;;;;;;;7.78;5.30;;;16.00;99.90;;;;;;4935831;29;20027;-74
2022/07/26 01:13:06;;;;;;;7.15;5.85;;;16.20;99.90;;;;;;4918702;29;20555;-74
2022/07/26 01:15:33;;;;;;;6.50;4.25;;;16.30;99.90;;;;;;4918490;29;20032;-74
2022/07/26 01:18:01;;;;;;;4.60;3.80;;;16.30;99.90;;;;;;4935640;29;20030;-73
2022/07/26 01:20:28;;;;;;;5.63;3.95;;;16.50;99.90;;;;;;4935546;29;20035;-73
2022/07/26 01:22:55;;;;;;;4.95;3.10;;;16.70;99.90;;;;;;4935504;29;20082;-74
2022/07/26 01:25:31;;;;;;;4.75;2.70;;;16.60;99.90;;;;;;4935814;29;20027;-74
2022/07/26 01:27:58;;;;;;;4.88;2.80;;;16.80;99.90;;;;;;4935563;29;20038;-74
2022/07/26 01:30:26;;;;;;;2.92;2.20;;;16.70;99.90;;;;;;4935529;29;20039;-73
2022/07/26 01:32:56;;;;;;;3.25;2.05;;;17.00;99.90;;;;;;4935416;29;20039;-73
2022/07/26 01:35:24;;;;;;;1.88;1.67;;;17.10;99.90;;;;;;4918359;29;20035;-72
2022/07/26 01:37:53;;;;;;;2.53;1.52;;;17.20;99.90;;;;;;4918291;29;20020;-73
2022/07/26 01:40:20;;;;;;;6.53;2.03;;;17.20;99.90;;;;;;4918365;29;20051;-74
2022/07/26 01:42:47;;;;;;;2.55;1.20;;;17.40;99.90;;;;;;4935632;29;20031;-73
2022/07/26 01:45:15;;;;;;;1.20;1.10;;;17.40;99.90;;;;;;4918234;29;20036;-74
2022/07/26 01:47:43;;;;;;;2.42;1.58;;;17.40;99.90;;;;;;4935444;29;20102;-73
2022/07/26 01:50:11;;;;;;;1.73;1.40;;;17.40;99.90;;;;;;4918143;29;20031;-73
2022/07/26 01:52:38;;;;;;;2.38;1.50;;;17.40;99.90;;;;;;4918157;29;20028;-73
2022/07/26 01:55:06;;;;;;;2.42;1.70;;;17.50;99.90;;;;;;4935270;29;20042;-73
2022/07/26 01:57:33;;;;;;;3.35;1.80;;;17.60;99.90;;;;;;4935529;29;20095;-73
2022/07/26 02:00:01;;;;;;;3.90;1.58;;;17.60;99.90;;;;;;4935525;29;20540;-74
2022/07/26 02:02:28;;;;;;;3.95;2.28;;;17.60;99.90;;;;;;4918180;29;20488;-73
2022/07/26 02:04:58;;;;;;;1.98;1.70;;;17.60;99.90;;;;;;4918180;29;20146;-73
2022/07/26 02:07:36;;;;;;;2.35;2.00;;;17.60;99.90;;;;;;4918266;29;20442;-73
2022/07/26 02:10:05;;;;;;;2.50;1.60;;;17.70;99.90;;;;;;4918134;29;20036;-73
2022/07/26 02:12:32;;;;;;;4.03;1.95;;;17.90;99.90;;;;;;4935329;29;20032;-73
2022/07/26 02:15:00;;;;;;;3.00;1.80;;;17.90;99.90;;;;;;4918024;29;20036;-74
2022/07/26 02:17:27;;;;;;;2.72;1.70;;;18.10;99.90;;;;;;4935329;29;20023;-74
2022/07/26 02:19:54;;;;;;;2.85;1.48;;;18.10;99.90;;;;;;4935193;29;20024;-73
2022/07/26 02:22:22;;;;;;;3.45;1.55;;;18.10;99.90;;;;;;4938063;29;20043;-74
2022/07/26 02:24:50;;;;;;;6.00;1.80;;;18.20;99.90;;;;;;4938710;29;20028;-74
2022/07/26 02:27:18;;;;;;;1.95;1.30;;;18.30;99.90;;;;;;4921717;29;20028;-74
2022/07/26 02:29:45;;;;;;;2.58;1.17;;;18.40;99.90;;;;;;4938620;29;20028;-73
2022/07/26 02:32:13;;;;;;;2.33;1.13;;;18.30;99.90;;;;;;4938782;29;20027;-74
2022/07/26 02:34:40;;;;;;;1.75;1.08;;;18.10;99.90;;;;;;4921438;29;20040;-73
2022/07/26 02:37:08;;;;;;;1.13;0.80;;;18.20;99.90;;;;;;4938578;29;20022;-73
2022/07/26 02:39:35;;;;;;;1.08;0.70;;;18.30;99.90;;;;;;4921466;29;20027;-73
2022/07/26 02:42:03;;;;;;;0.70;0.60;;;18.40;99.90;;;;;;4921054;29;20019;-72
2022/07/26 02:44:30;;;;;;;0.68;0.50;;;18.40;99.90;;;;;;4938258;29;20031;-74
2022/07/26 02:46:58;;;;;;;1.35;0.40;;;18.30;99.90;;;;;;4920942;29;20024;-74
2022/07/26 02:49:25;;;;;;;3.63;0.50;;;18.10;99.90;;;;;;4938099;29;20023;-73
2022/07/26 02:51:53;;;;;;;2.10;0.40;;;18.30;99.90;;;;;;4920857;29;20024;-74
2022/07/26 02:54:20;;;;;;;0.82;0.40;;;18.40;99.90;;;;;;4938062;29;20541;-73
2022/07/26 02:56:47;;;;;;;2.13;0.50;;;18.60;99.90;;;;;;4937972;29;20024;-73
2022/07/26 02:59:15;;;;;;;0.52;0.30;;;18.70;99.90;;;;;;4938139;29;20031;-74
2022/07/26 03:01:42;;;;;;;1.90;0.73;;;18.80;99.90;;;;;;4937710;29;20028;-73
2022/07/26 03:04:09;;;;;;;1.30;0.30;;;18.90;99.90;;;;;;4920447;29;20035;-74
2022/07/26 03:06:37;;;;;;;1.50;0.30;;;18.70;99.90;;;;;;4937241;29;20028;-73
2022/07/26 03:09:04;;;;;;;1.75;0.40;;;18.50;99.90;;;;;;4938067;29;20075;-74
2022/07/26 03:11:32;;;;;;;1.08;0.40;;;18.30;99.90;;;;;;4937994;29;20106;-74
2022/07/26 03:13:59;;;;;;;0.98;0.30;;;18.20;99.90;;;;;;4938019;29;20028;-73
2022/07/26 03:16:27;;;;;;;0.60;0.38;;;18.00;99.90;;;;;;4937566;29;20136;-73
2022/07/26 03:18:54;;;;;;;0.50;0.32;;;17.90;99.90;;;;;;4920613;29;20055;-73
2022/07/26 03:21:21;;;;;;;1.98;0.80;;;17.90;99.90;;;;;;4920313;29;20024;-73
2022/07/26 03:23:49;;;;;;;1.00;0.40;;;17.90;99.90;;;;;;4920356;29;20575;-73
2022/07/26 03:26:16;;;;;;;0.50;0.50;;;17.90;99.90;;;;;;4920426;29;20477;-73
2022/07/26 03:28:44;;;;;;;1.17;0.35;;;17.80;99.90;;;;;;4920477;29;20043;-74
2022/07/26 03:31:12;;;;;;;1.60;0.30;;;17.90;99.90;;;;;;4920154;29;20043;-74
2022/07/26 03:33:42;;;;;;;0.68;0.40;;;18.00;99.90;;;;;;4937877;29;20032;-73
2022/07/26 03:36:10;;;;;;;0.57;0.40;;;18.50;99.90;;;;;;4937198;29;20127;-72
2022/07/26 03:38:37;;;;;;;1.65;0.68;;;18.80;99.90;;;;;;4920026;29;20389;-72
2022/07/26 03:41:05;;;;;;;0.85;0.30;;;18.90;99.90;;;;;;4920069;29;20125;-73
2022/07/26 03:43:32;;;;;;;1.05;0.60;;;19.00;99.90;;;;;;4937260;29;20019;-74
2022/07/26 03:46:00;;;;;;;0.98;0.30;;;18.70;99.90;;;;;;4937075;29;20477;-74
2022/07/26 03:48:27;;;;;;;0.82;0.40;;;18.50;99.90;;;;;;4937022;29;20031;-73
2022/07/26 03:50:55;;;;;;;1.02;0.43;;;18.30;99.90;;;;;;4937084;29;20028;-73
2022/07/26 03:53:22;;;;;;;0.52;0.30;;;18.40;99.90;;;;;;4919771;29;20050;-73
2022/07/26 03:58:35;;;;;;;1.00;0.30;;;18.10;99.90;;;;;;4936796;29;20559;-73
2022/07/26 04:01:02;;;;;;;2.22;0.50;;;17.80;99.90;;;;;;4937448;29;20031;-73
2022/07/26 04:03:30;;;;;;;1.73;0.40;;;17.70;99.40;;;;;;4937038;29;20020;-73
2022/07/26 04:05:57;;;;;;;1.33;0.30;;;17.60;99.90;;;;;;4919838;29;20027;-72
2022/07/26 04:08:25;;;;;;;0.47;0.20;;;17.50;99.90;;;;;;4919641;29;20043;-72
2022/07/26 04:10:56;;;;;;;0.47;0.22;;;17.80;99.40;;;;;;4936430;29;20436;-72
2022/07/26 04:13:23;;;;;;;1.27;0.50;;;18.00;99.70;;;;;;4919376;29;20028;-73
2022/07/26 04:15:51;;;;;;;1.13;0.50;;;17.90;99.90;;;;;;4936557;29;20032;-73
2022/07/26 04:18:18;;;;;;;2.58;0.60;;;17.80;99.90;;;;;;4936378;29;20030;-73
2022/07/26 04:20:46;;;;;;;1.70;0.43;;;17.80;99.90;;;;;;4936395;29;20020;-73
2022/07/26 04:23:13;;;;;;;0.98;0.22;;;17.90;99.90;;;;;;4918971;29;20412;-73
2022/07/26 04:25:41;;;;;;;1.50;0.32;;;17.90;99.90;;;;;;4919341;29;20028;-72
2022/07/26 04:28:10;;;;;;;1.52;0.43;;;17.80;99.90;;;;;;4903774;29;20032;-73
2022/07/26 04:30:39;;;;;;;3.83;0.80;;;17.80;99.90;;;;;;4936150;29;20512;-74
2022/07/26 04:33:06;;;;;;;1.23;0.30;;;18.00;99.90;;;;;;4919310;29;20540;-73
2022/07/26 04:35:35;;;;;;;1.10;0.30;;;17.90;99.90;;;;;;4919068;29;20111;-74
2022/07/26 04:38:03;;;;;;;1.10;0.40;;;17.70;99.90;;;;;;4903612;29;20034;-73
2022/07/26 04:40:33;;;;;;;1.52;0.28;;;17.40;99.90;;;;;;4936116;29;20544;-73
2022/07/26 04:43:04;;;;;;;1.30;0.28;;;17.00;99.90;;;;;;4935554;29;20051;-73
2022/07/26 04:45:32;;;;;;;1.98;0.50;;;16.80;99.90;;;;;;4936010;29;20031;-73
2022/07/26 04:47:59;;;;;;;2.03;0.30;;;16.60;99.90;;;;;;4919102;29;20087;-73
2022/07/26 04:50:27;;;;;;;0.70;0.20;;;16.50;99.90;;;;;;4918835;29;20024;-74
2022/07/26 04:52:55;;;;;;;1.40;0.40;;;16.30;99.90;;;;;;4919324;29;20516;-74
2022/07/26 04:55:23;;;;;;;2.33;0.30;;;16.20;99.90;;;;;;4935720;29;20098;-74
2022/07/26 04:57:51;;;;;;;2.92;0.25;;;16.20;99.90;;;;;;4935999;29;20031;-73
2022/07/26 05:00:23;;;;;;;1.48;0.32;;;16.00;99.90;;;;;;4919335;29;20040;-73
2022/07/26 05:02:57;;;;;;;1.23;0.10;;;16.00;99.90;;;;;;4903549;29;20064;-73
2022/07/26 05:05:27;;;;;;;1.85;0.45;;;15.90;99.90;;;;;;4918766;29;20027;-73
2022/07/26 05:07:57;;;;;;;1.05;0.17;;;15.80;99.90;;;;;;4918780;29;20439;-71
2022/07/26 05:10:35;;;;;;;1.10;0.20;;;15.60;99.90;;;;;;4935809;29;20440;-73
2022/07/26 05:13:07;;;;;;;1.23;0.22;;;15.50;99.90;;;;;;4935796;29;20059;-73
2022/07/26 05:15:36;;;;;;;0.47;0.15;;;15.50;99.90;;;;;;4903150;29;20042;-73
2022/07/26 05:18:08;;;;;;;1.40;0.40;;;15.40;99.90;;;;;;4919242;29;20035;-73
2022/07/26 05:20:37;;;;;;;0.70;0.30;;;15.30;99.90;;;;;;4935779;29;20023;-74
2022/07/26 05:23:05;;;;;;;0.40;0.20;;;15.20;99.90;;;;;;4918536;29;20512;-72
2022/07/26 05:25:32;;;;;;;0.50;0.20;;;14.80;99.90;;;;;;4918579;29;20028;-73
2022/07/26 05:28:00;;;;;;;0.55;0.40;;;14.70;99.90;;;;;;4918992;29;20036;-73
2022/07/26 05:30:28;;;;;;;0.65;0.30;;;14.60;99.90;;;;;;4918735;29;20551;-73
2022/07/26 05:32:55;;;;;;;1.35;0.30;;;14.40;99.90;;;;;;4918573;29;20433;-73
2022/07/26 05:35:23;;;;;;;0.30;0.10;;;14.40;99.90;;;;;;4935587;29;20485;-73
2022/07/26 05:37:50;;;;;;;1.10;0.10;;;14.50;99.90;;;;;;4935669;29;20099;-73
2022/07/26 05:40:18;;;;;;;0.70;0.20;;;14.60;99.90;;;;;;4918528;29;20035;-72
2022/07/26 05:42:46;;;;;;;2.03;0.40;;;14.70;99.90;;;;;;4918215;29;20034;-72
2022/07/26 05:45:13;;;;;;;0.93;0.30;;;14.70;99.90;;;;;;4918472;29;20035;-72
2022/07/26 05:47:40;;;;;;;1.67;0.22;;;14.70;99.90;;;;;;4918220;29;20062;-71
2022/07/26 05:50:08;;;;;;;0.63;0.30;;;14.60;99.90;;;;;;4918246;29;20027;-73
2022/07/26 05:52:35;;;;;;;0.80;0.20;;;14.40;99.90;;;;;;4935477;29;20024;-73
2022/07/26 05:55:03;;;;;;;0.68;0.30;;;14.30;99.90;;;;;;4919962;29;20062;-72
2022/07/26 05:57:30;;;;;;;1.83;0.30;;;14.20;99.90;;;;;;4921873;29;20035;-72
2022/07/26 05:59:58;;;;;;;0.65;0.10;;;14.20;99.90;;;;;;4922072;29;20027;-72
2022/07/26 06:02:25;;;;;;;0.82;0.30;;;14.10;99.90;;;;;;4939388;29;20034;-73
2022/07/26 06:04:53;;;;;;;1.83;0.30;;;14.20;99.90;;;;;;4938954;29;20027;-74
2022/07/26 06:07:20;;;;;;;0.20;0.10;;;14.20;99.90;;;;;;4921937;29;20023;-72
2022/07/26 06:09:48;;;;;;;0.63;0.20;;;14.20;99.90;;;;;;4921817;29;20396;-72
2022/07/26 06:12:16;;;;;;;1.23;0.20;;;14.20;99.90;;;;;;4906662;29;20127;-72
2022/07/26 06:14:43;;;;;;;0.45;0.10;;;14.30;99.90;;;;;;4921411;29;20032;-73
2022/07/26 06:17:11;;;;;;;1.25;0.17;;;14.30;99.90;;;;;;4938693;29;20384;-74
2022/07/26 06:19:38;;;;;;;0.47;0.28;;;14.20;99.90;;;;;;4938776;29;20016;-73
2022/07/26 06:22:06;;;;;;;0.30;0.15;;;14.10;99.90;;;;;;4921575;29;20536;-73
2022/07/26 06:24:33;;;;;;;2.00;0.32;;;14.00;99.90;;;;;;4921740;29;20023;-72
2022/07/26 06:27:01;;;;;;;2.55;0.30;;;14.00;99.90;;;;;;4938450;29;20054;-73
2022/07/26 06:29:29;;;;;;;0.50;0.30;;;13.90;99.90;;;;;;4905854;29;20035;-72
2022/07/26 06:31:59;;;;;;;;;;;13.80;99.90;;;;;;4922362;29;20492;-73
2022/07/26 06:34:26;;;;;;;1.98;0.20;;;13.70;99.90;;;;;;4938505;29;19911;-73
2022/07/26 06:36:54;;;;;;;0.52;0.10;;;13.70;99.90;;;;;;4905442;29;20396;-71
2022/07/26 06:39:22;;;;;;;0.35;0.13;;;13.60;99.90;;;;;;4921371;29;20074;-72
2022/07/26 06:41:49;;;;;;;0.32;0.10;;;13.60;99.90;;;;;;4938183;29;20020;-71
2022/07/26 06:44:17;;;;;;;1.60;0.20;;;13.40;99.90;;;;;;4921048;29;20021;-71
2022/07/26 06:46:44;;;;;;;2.08;0.40;;;13.30;99.90;;;;;;4938423;29;20107;-70
2022/07/26 06:49:11;;;;;;;2.20;0.32;;;13.20;99.90;;;;;;4938056;29;20024;-71
2022/07/26 06:51:39;;;;;;;2.85;0.30;;;13.20;99.90;;;;;;4920951;29;20082;-70
2022/07/26 06:54:06;;;;;;;1.80;0.30;;;13.10;99.90;;;;;;4920772;29;20039;-70
2022/07/26 06:56:33;;;;;;;1.13;0.20;;;13.00;99.90;;;;;;4937824;29;20035;-71
2022/07/26 06:59:01;;;;;;;1.02;0.25;;;12.90;99.90;;;;;;4937725;29;20024;-70
2022/07/26 07:01:28;;;;;;;1.80;0.17;;;12.90;99.90;;;;;;4920544;29;20032;-71
2022/07/26 07:03:56;;;;;;;1.27;0.20;;;12.80;99.90;;;;;;4920614;29;20024;-71
2022/07/26 07:06:23;;;;;;;1.65;0.30;;;12.70;99.90;;;;;;4919776;29;20489;-71
2022/07/26 07:08:50;;;;;;;0.93;0.30;;;12.60;99.90;;;;;;4937714;29;20019;-71
2022/07/26 07:11:18;;;;;;;0.63;0.10;;;12.50;99.90;;;;;;4920491;29;20071;-71
2022/07/26 07:13:45;;;;;;;0.73;0.20;;;12.40;99.90;;;;;;4937887;29;20031;-71
2022/07/26 07:16:12;;;;;;;1.30;0.20;;;12.40;99.90;;;;;;4920439;29;20027;-70
2022/07/26 07:18:40;;;;;;;1.42;0.40;;;12.30;99.90;;;;;;4920502;29;20028;-72
2022/07/26 07:21:08;;;;;;;1.77;0.30;;;12.30;99.90;;;;;;4920258;29;20020;-73
2022/07/26 07:23:38;;;;;;;1.15;0.30;;;12.20;99.90;;;;;;4920765;29;20420;-73
2022/07/26 07:26:06;;;;;;;2.78;1.05;;;12.30;99.90;;;;;;4920303;29;20070;-73
2022/07/26 07:28:37;;;;;;;0.73;0.30;;;12.20;99.90;;;;;;4920976;29;20056;-72
2022/07/26 07:31:06;;;;;;;;;;;12.20;99.90;;;;;;4920539;29;20173;-74
2022/07/26 07:33:34;;;;;;;0.75;0.20;;;12.20;99.90;;;;;;4937517;29;19922;-73
2022/07/26 07:36:41;;;;;;;1.95;0.38;;;12.20;99.90;;;;;;4937388;29;20032;-73
2022/07/26 07:39:08;;;;;;;2.45;0.22;;;12.10;99.90;;;;;;4919990;29;20091;-73
2022/07/26 07:41:37;;;;;;;2.22;0.30;;;12.10;99.90;;;;;;4937110;29;20032;-72
2022/07/26 07:44:05;;;;;;;0.65;0.20;;;12.00;99.90;;;;;;4937105;29;20028;-72
2022/07/26 07:46:32;;;;;;;1.73;0.30;;;12.00;99.90;;;;;;4937126;29;20036;-72
2022/07/26 07:49:00;;;;;;;1.50;0.30;;;11.90;99.90;;;;;;4919938;29;20042;-71
2022/07/26 07:51:28;;;;;;;1.27;0.30;;;11.90;99.90;;;;;;4920043;29;20027;-71
2022/07/26 07:53:55;;;;;;;0.60;0.20;;;11.90;99.90;;;;;;4936853;29;20051;-70
2022/07/26 07:56:23;;;;;;;1.33;0.38;;;11.90;99.90;;;;;;4919662;29;20024;-71
2022/07/26 07:58:50;;;;;;;0.95;0.30;;;11.80;99.90;;;;;;4936868;29;20389;-71
2022/07/26 08:01:18;;;;;;;1.23;0.47;;;11.80;99.90;;;;;;4919598;29;20405;-71
2022/07/26 08:03:45;;;;;;;1.23;0.30;;;11.80;99.90;;;;;;4936886;29;20031;-71
2022/07/26 08:06:12;;;;;;;1.70;0.30;;;11.80;99.90;;;;;;4919673;29;20032;-73
2022/07/26 08:08:40;;;;;;;0.90;0.30;;;11.80;99.90;;;;;;4919579;29;20082;-71
2022/07/26 08:11:07;;;;;;;0.60;0.20;;;11.80;99.90;;;;;;4919492;29;20035;-72
2022/07/26 08:13:34;;;;;;;1.65;0.38;;;11.80;99.90;;;;;;4936581;29;20031;-71
2022/07/26 08:16:02;;;;;;;2.10;0.60;;;11.80;99.90;;;;;;4936478;29;20547;-70
2022/07/26 08:18:29;;;;;;;1.25;0.40;;;11.80;99.90;;;;;;4935613;29;20027;-71
2022/07/26 08:20:58;;;;;;;1.00;0.50;;;11.80;99.90;;;;;;4919466;29;20114;-71
2022/07/26 08:23:25;;;;;;;1.50;0.25;;;11.70;99.90;;;;;;4918940;29;20524;-71
2022/07/26 08:25:52;;;;;;;1.83;0.60;;;11.70;99.90;;;;;;4936547;29;20370;-73
2022/07/26 08:28:20;;;;;;;2.22;0.57;;;11.70;99.90;;;;;;4936517;29;20370;-73
2022/07/26 08:30:47;;;;;;;1.67;0.40;;;11.70;99.90;;;;;;4919517;29;20118;-72
2022/07/26 08:33:15;;;;;;;0.90;0.38;;;11.70;99.90;;;;;;4919137;29;20381;-72
2022/07/26 08:35:42;;;;;;;1.95;0.32;;;11.70;99.90;;;;;;4935678;29;20031;-72
2022/07/26 08:38:09;;;;;;;2.08;0.50;;;11.70;99.90;;;;;;4936321;29;20030;-72
2022/07/26 08:40:37;;;;;;;0.75;0.20;;;11.70;99.90;;;;;;4918886;29;20028;-73
2022/07/26 08:43:04;;;;;;;1.05;0.47;;;11.70;99.90;;;;;;4936098;29;20023;-72
2022/07/26 08:45:31;;;;;;;1.63;0.57;;;11.70;99.90;;;;;;4919030;29;20031;-72
2022/07/26 08:48:00;;;;;;;0.93;0.40;;;11.70;99.90;;;;;;4919001;29;20036;-72
2022/07/26 08:50:28;;;;;;;1.85;0.63;;;11.60;99.90;;;;;;4918845;29;20024;-72
2022/07/26 08:53:02;;;;;;;0.95;0.40;;;11.60;99.90;;;;;;4936089;29;20032;-70
2022/07/26 08:55:30;;;;;;;1.48;0.50;;;11.60;99.90;;;;;;4936382;29;20488;-71
2022/07/26 08:57:57;;;;;;;1.33;0.50;;;11.60;99.90;;;;;;4918821;29;20110;-71
2022/07/26 09:00:30;;;;;;;1.15;0.40;;;11.60;99.90;;;;;;4935869;29;20036;-71
2022/07/26 09:03:00;;;;;;;2.50;0.40;;;11.60;99.90;;;;;;4919551;29;20485;-70
2022/07/26 09:05:38;;;;;;;1.52;0.65;;;11.60;99.90;;;;;;4918633;29;20031;-69
2022/07/26 09:08:27;;;;;;;1.45;0.30;;;11.60;99.90;;;;;;4936138;29;20488;-70
2022/07/26 09:10:55;;;;;;;1.27;0.20;;;11.60;99.90;;;;;;4918665;29;20034;-69
2022/07/26 09:13:23;;;;;;;0.57;0.45;;;11.60;99.90;;;;;;4918630;29;20031;-70
2022/07/26 09:16:11;;;;;;;1.88;0.50;;;11.60;99.90;;;;;;4903043;29;20053;-70
2022/07/26 09:18:39;;;;;;;2.45;0.52;;;11.60;99.90;;;;;;4936241;29;20032;-69
2022/07/26 09:21:06;;;;;;;1.33;0.57;;;11.60;99.90;;;;;;4935724;29;20024;-70
2022/07/26 09:23:42;;;;;;;0.55;0.30;;;11.60;99.90;;;;;;4935465;29;20043;-70
2022/07/26 09:26:10;;;;;;;1.08;0.38;;;11.60;99.90;;;;;;4918597;29;20481;-69
2022/07/26 09:28:37;;;;;;;1.10;0.57;;;11.50;99.90;;;;;;4935613;29;20037;-70
2022/07/26 09:31:05;;;;;;;1.67;0.30;;;11.50;99.90;;;;;;4938873;29;20484;-69
2022/07/26 09:33:50;;;;;;;1.30;0.20;;;11.40;99.90;;;;;;4922270;29;20508;-69
2022/07/26 09:36:18;;;;;;;1.00;0.40;;;11.40;99.90;;;;;;4922200;29;20055;-69
2022/07/26 09:38:52;;;;;;;1.20;0.30;;;11.40;99.90;;;;;;4939683;29;20034;-70
2022/07/26 09:41:28;;;;;;;1.30;0.20;;;11.40;99.90;;;;;;4922339;29;20098;-70
2022/07/26 09:44:18;;;;;;;1.90;0.43;;;11.40;99.90;;;;;;4939402;29;20024;-71
2022/07/26 09:47:11;;;;;;;1.02;0.32;;;11.40;99.90;;;;;;4939311;29;20504;-69
2022/07/26 09:49:40;;;;;;;1.30;0.30;;;11.40;99.90;;;;;;4936164;29;20119;-69
2022/07/26 09:52:19;;;;;;;1.20;0.30;;;11.40;99.90;;;;;;4939183;29;20111;-69
2022/07/26 09:54:48;;;;;;;1.27;0.30;;;11.50;99.90;;;;;;4922141;29;20416;-68
2022/07/26 09:57:20;;;;;;;1.05;0.40;;;11.50;99.90;;;;;;4939427;29;20465;-70
2022/07/26 09:59:48;;;;;;;1.10;0.30;;;11.50;99.90;;;;;;4939350;29;20030;-70
2022/07/26 10:02:16;;;;;;;1.65;0.30;;;11.50;99.90;;;;;;4922322;29;20087;-70
2022/07/26 10:04:44;;;;;;;1.02;0.28;;;11.50;99.90;;;;;;4921572;29;20437;-70
2022/07/26 10:07:12;;;;;;;1.00;0.60;;;11.50;99.90;;;;;;4938434;29;20023;-68
2022/07/26 10:09:53;;;;;;;1.13;0.43;;;11.50;99.90;;;;;;4938453;29;20476;-69
2022/07/26 10:12:23;;;;;;;0.70;0.22;;;11.50;99.90;;;;;;4938921;29;20027;-68
2022/07/26 10:14:50;;;;;;;1.20;0.28;;;11.60;99.90;;;;;;4920988;29;20408;-70
2022/07/26 10:17:32;;;;;;;1.10;0.20;;;11.60;99.90;;;;;;4938481;29;20033;-69
2022/07/26 10:20:02;;;;;;;1.02;0.30;;;11.60;99.90;;;;;;4938881;29;20056;-69
2022/07/26 10:22:34;;;;;;;0.68;0.40;;;11.60;99.90;;;;;;4921446;29;20378;-69
2022/07/26 10:25:20;;;;;;;0.95;0.20;;;11.60;99.90;;;;;;4939491;29;20027;-70
2022/07/26 10:27:50;;;;;;;0.38;0.30;;;11.60;99.90;;;;;;4938689;29;20024;-69
2022/07/26 10:30:26;;;;;;;1.20;0.30;;;11.60;99.90;;;;;;4938638;29;20115;-69
2022/07/26 10:33:09;;;;;;;1.27;0.30;;;11.60;99.90;;;;;;4921296;29;20035;-69
2022/07/26 10:35:42;;;;;;;1.95;0.40;;;11.60;99.90;;;;;;4938490;29;20035;-70
2022/07/26 10:38:22;;;;;;;0.73;0.25;;;11.60;99.90;;;;;;4938602;29;20020;-70
2022/07/26 10:40:59;;;;;;;1.15;0.35;;;11.60;99.90;;;;;;4937786;29;20016;-71
2022/07/26 10:43:28;;;;;;;2.88;0.30;;;11.50;99.90;;;;;;4938287;29;20366;-70
2022/07/26 10:46:19;;;;;;;0.93;0.35;;;11.50;99.90;;;;;;4938274;29;20086;-68
2022/07/26 10:49:05;;;;;;;0.43;0.17;;;11.50;99.90;;;;;;4938346;29;20037;-70
2022/07/26 10:51:35;;;;;;;1.35;0.30;;;11.60;99.90;;;;;;4921070;29;20059;-69
2022/07/26 10:54:07;;;;;;;0.70;0.25;;;11.60;99.90;;;;;;4921163;29;20484;-70
2022/07/26 10:56:34;;;;;;;2.13;0.40;;;11.50;99.90;;;;;;4920860;29;20046;-69
2022/07/26 10:59:03;;;;;;;0.90;0.30;;;11.60;99.90;;;;;;4920920;29;20102;-69
2022/07/26 11:01:39;;;;;;;0.82;0.30;;;11.60;99.90;;;;;;4937914;29;20019;-69
2022/07/26 11:04:22;;;;;;;0.90;0.38;;;11.50;99.90;;;;;;4938160;29;20022;-68
2022/07/26 11:06:50;;;;;;;1.92;0.32;;;11.50;99.90;;;;;;4920860;29;20032;-68
2022/07/26 11:09:18;;;;;;;1.08;0.25;;;11.50;99.90;;;;;;4920702;29;20477;-68
2022/07/26 11:11:46;;;;;;;1.58;0.30;;;11.40;99.90;;;;;;4937749;29;20023;-70
2022/07/26 11:14:15;;;;;;;1.88;0.35;;;11.40;99.90;;;;;;4937917;29;20030;-68
2022/07/26 11:16:51;;;;;;;1.27;0.32;;;11.40;99.90;;;;;;4920592;29;20122;-68
2022/07/26 11:19:21;;;;;;;0.85;0.40;;;11.40;99.90;;;;;;4920456;29;20023;-68
2022/07/26 11:21:59;;;;;;;2.40;0.70;;;11.30;99.90;;;;;;4937461;29;20016;-68
2022/07/26 11:24:28;;;;;;;1.77;0.30;;;11.40;99.90;;;;;;4937531;29;20047;-68
2022/07/26 11:26:55;;;;;;;0.75;0.20;;;11.40;99.90;;;;;;4937523;29;20082;-67
2022/07/26 11:29:31;;;;;;;0.70;0.10;;;11.40;99.90;;;;;;4937500;29;20032;-69
2022/07/26 11:31:59;;;;;;;1.30;0.20;;;11.30;99.90;;;;;;4937458;29;20028;-68
2022/07/26 11:34:28;;;;;;;0.95;0.20;;;11.30;99.90;;;;;;4920471;29;20066;-68
2022/07/26 11:36:58;;;;;;;1.35;0.30;;;11.30;99.90;;;;;;4937317;29;20055;-69
2022/07/26 11:39:28;;;;;;;0.45;0.30;;;11.20;99.90;;;;;;4937537;29;20118;-69
2022/07/26 11:42:01;;;;;;;1.70;0.30;;;11.20;99.90;;;;;;4920132;29;20035;-68
2022/07/26 11:44:29;;;;;;;1.40;0.30;;;11.30;99.90;;;;;;4937289;29;20027;-68
2022/07/26 11:46:57;;;;;;;0.68;0.30;;;11.20;99.90;;;;;;4937143;29;20038;-68
2022/07/26 11:49:27;;;;;;;3.15;0.50;;;11.20;99.90;;;;;;4937166;29;20032;-68
2022/07/26 11:51:59;;;;;;;0.40;0.10;;;11.20;99.90;;;;;;4937056;29;20027;-68
2022/07/26 11:54:31;;;;;;;1.92;0.38;;;11.20;99.90;;;;;;4919819;29;20036;-68
2022/07/26 11:57:04;;;;;;;0.90;0.30;;;11.20;99.90;;;;;;4936989;29;20082;-69
2022/07/26 11:59:35;;;;;;;0.85;0.25;;;11.20;99.90;;;;;;4936938;29;20151;-69
2022/07/26 12:02:08;;;;;;;1.48;0.20;;;11.20;99.90;;;;;;4920201;29;20473;-69
2022/07/26 12:04:41;;;;;;;0.60;0.28;;;11.10;99.90;;;;;;4919694;29;20038;-69
2022/07/26 12:07:11;;;;;;;1.08;0.40;;;11.10;99.90;;;;;;4921032;29;20087;-69
2022/07/26 12:09:40;;;;;;;1.57;0.20;;;11.10;99.90;;;;;;4919704;29;20123;-69
2022/07/26 12:12:21;;;;;;;0.60;0.13;;;11.10;99.90;;;;;;4919664;29;20293;-69
2022/07/26 12:15:03;;;;;;;1.83;0.47;;;11.10;99.90;;;;;;4936846;29;20035;-69
2022/07/26 12:17:31;;;;;;;0.52;0.43;;;11.10;99.90;;;;;;4936969;29;20115;-69
2022/07/26 12:20:12;;;;;;;1.67;0.30;;;11.00;99.90;;;;;;4936521;29;20387;-70
2022/07/26 12:22:40;;;;;;;1.25;0.30;;;11.00;99.90;;;;;;4936481;29;20103;-69
2022/07/26 12:25:08;;;;;;;1.23;0.20;;;11.00;99.90;;;;;;4919208;29;20028;-68
2022/07/26 12:27:46;;;;;;;0.90;0.22;;;10.90;99.90;;;;;;4936386;29;20098;-68
2022/07/26 12:30:16;;;;;;;1.23;0.30;;;10.90;99.90;;;;;;4936498;29;20111;-68
2022/07/26 12:32:47;;;;;;;1.50;0.23;;;11.00;99.90;;;;;;4936634;29;20024;-69
2022/07/26 12:35:28;;;;;;;1.88;0.38;;;10.90;99.90;;;;;;4919172;29;20032;-70
2022/07/26 12:37:55;;;;;;;;;;;10.90;99.90;;;;;;4920069;29;20079;-68
2022/07/26 12:40:28;;;;;;;0.70;0.20;;;10.90;99.90;;;;;;4919216;29;19907;-68
2022/07/26 12:42:58;;;;;;;0.90;0.30;;;10.90;99.90;;;;;;4936707;29;20091;-66
2022/07/26 12:45:31;;;;;;;1.25;0.30;;;10.90;99.90;;;;;;4919139;29;20028;-68
2022/07/26 12:48:00;;;;;;;0.80;0.17;;;10.80;99.90;;;;;;4936131;29;20028;-68
2022/07/26 12:50:33;;;;;;;1.60;0.30;;;10.80;99.90;;;;;;4936315;29;20027;-68
2022/07/26 12:53:06;;;;;;;2.25;0.32;;;10.80;99.90;;;;;;4919011;29;20127;-68
2022/07/26 12:55:34;;;;;;;1.10;0.28;;;10.80;99.90;;;;;;4935909;29;20035;-67
2022/07/26 12:58:02;;;;;;;0.77;0.40;;;10.80;99.90;;;;;;4936022;29;20024;-68
2022/07/26 13:00:29;;;;;;;1.08;0.20;;;10.80;99.90;;;;;;4935888;29;20016;-68
2022/07/26 13:02:57;;;;;;;1.02;0.20;;;10.80;99.90;;;;;;4918763;29;20159;-68